createdAt,value
2019-03-21T00:01:23.535Z,100695.48
2019-03-21T00:11:58.455Z,100700.26
2019-03-21T00:21:59.141Z,100703.34
2019-03-21T00:32:00.932Z,100717.98
2019-03-21T00:42:02.817Z,100725.31
2019-03-21T00:52:03.628Z,100714.00
2019-03-21T01:02:05.314Z,100721.44
2019-03-21T01:12:07.345Z,100718.71
2019-03-21T01:22:09.218Z,100713.86
2019-03-21T01:32:09.890Z,100705.19
2019-03-21T01:42:10.809Z,100706.88
2019-03-21T01:52:11.569Z,100696.64
2019-03-21T02:02:12.570Z,100698.17
2019-03-21T02:12:13.395Z,100687.84
2019-03-21T02:22:14.155Z,100691.76
2019-03-21T02:32:14.872Z,100690.95
2019-03-21T02:42:15.989Z,100682.14
2019-03-21T02:52:16.889Z,100677.41
2019-03-21T03:02:27.716Z,100672.92
2019-03-21T03:12:28.523Z,100675.22
2019-03-21T03:22:34.978Z,100681.44
2019-03-21T03:32:36.869Z,100685.48
2019-03-21T03:42:37.722Z,100678.63
2019-03-21T03:52:38.521Z,100690.16
2019-03-21T04:02:39.396Z,100701.27
2019-03-21T04:12:40.298Z,100699.73
2019-03-21T04:22:42.206Z,100693.47
2019-03-21T04:32:43.434Z,100708.84
2019-03-21T04:42:48.288Z,100701.66
2019-03-21T04:52:54.861Z,100707.23
2019-03-21T05:03:01.401Z,100701.13
2019-03-21T05:13:06.073Z,100704.92
2019-03-21T05:23:06.804Z,100701.78
2019-03-21T05:33:07.483Z,100720.36
2019-03-21T05:43:14.531Z,100726.72
2019-03-21T05:53:15.275Z,100721.17
2019-03-21T06:03:22.208Z,100734.17
2019-03-21T06:13:22.954Z,100738.53
2019-03-21T06:23:48.759Z,100747.83
2019-03-21T06:33:49.516Z,100750.19
2019-03-21T06:43:50.165Z,100761.29
2019-03-21T06:53:52.959Z,100762.58
2019-03-21T07:03:53.704Z,100756.66
2019-03-21T07:13:55.521Z,100766.91
2019-03-21T07:23:56.163Z,100766.81
2019-03-21T07:33:57.893Z,100766.27
2019-03-21T07:43:58.540Z,100771.02
2019-03-21T07:53:59.210Z,100769.19
2019-03-21T08:03:59.892Z,100774.11
2019-03-21T08:14:02.849Z,100766.63
2019-03-21T08:24:03.633Z,100766.40
2019-03-21T08:34:04.411Z,100764.21
2019-03-21T08:44:05.102Z,100761.13
2019-03-21T08:54:06.026Z,100763.60
2019-03-21T09:04:06.872Z,100761.33
2019-03-21T09:14:08.794Z,100767.53
2019-03-21T09:24:09.522Z,100759.18
2019-03-21T09:34:10.341Z,100755.92
2019-03-21T09:44:11.055Z,100743.66
2019-03-21T09:54:11.850Z,100739.53
2019-03-21T10:04:12.480Z,100735.50
2019-03-21T10:14:13.212Z,100731.34
2019-03-21T10:24:14.876Z,100723.20
2019-03-21T10:34:15.559Z,100723.52
2019-03-21T10:44:17.300Z,100720.73
2019-03-21T10:54:18.122Z,100719.74
2019-03-21T11:04:18.873Z,100711.56
2019-03-21T11:14:19.751Z,100695.84
2019-03-21T11:24:20.431Z,100690.30
2019-03-21T11:34:22.318Z,100682.61
2019-03-21T11:44:23.008Z,100665.73
2019-03-21T11:54:23.712Z,100657.08
2019-03-21T12:04:38.703Z,100648.14
2019-03-21T12:14:40.536Z,100631.88
2019-03-21T12:24:41.433Z,100610.76
2019-03-21T12:34:42.390Z,100603.11
2019-03-21T12:44:49.474Z,100596.56
2019-03-21T12:54:50.828Z,100590.08
2019-03-21T13:04:52.472Z,100570.92
2019-03-21T13:14:54.170Z,100563.58
2019-03-21T13:25:04.245Z,100548.42
2019-03-21T13:35:07.161Z,100547.95
2019-03-21T13:45:07.962Z,100537.20
2019-03-21T13:55:17.551Z,100522.58
2019-03-21T14:05:18.433Z,100520.42
2019-03-21T14:15:19.186Z,100500.75
2019-03-21T14:25:19.836Z,100488.15
2019-03-21T14:35:21.621Z,100483.81
2019-03-21T14:45:28.524Z,100476.09
2019-03-21T14:55:32.997Z,100465.05
2019-03-21T15:05:42.545Z,100457.95
2019-03-21T15:15:43.379Z,100456.73
2019-03-21T15:25:44.162Z,100451.14
2019-03-21T15:35:45.918Z,100447.93
2019-03-21T15:45:53.429Z,100436.63
2019-03-21T15:55:54.209Z,100421.55
2019-03-21T16:05:55.968Z,100421.58
2019-03-21T16:15:56.758Z,100409.79
2019-03-21T16:26:04.511Z,100404.09
2019-03-21T16:36:06.394Z,100402.64
2019-03-21T16:46:08.137Z,100402.72
2019-03-21T16:56:10.017Z,100396.48
2019-03-21T17:06:10.810Z,100392.97
2019-03-21T17:16:12.571Z,100394.07
2019-03-21T17:26:15.768Z,100401.72
2019-03-21T17:36:15.965Z,100420.00
2019-03-21T17:46:24.479Z,100421.74
2019-03-21T17:56:25.216Z,100426.58
2019-03-21T18:06:28.058Z,100425.47
2019-03-21T18:16:28.913Z,100430.44
2019-03-21T18:26:30.638Z,100432.18
2019-03-21T18:36:31.483Z,100426.86
2019-03-21T18:46:32.222Z,100440.96
2019-03-21T18:56:34.076Z,100443.25
2019-03-21T19:06:34.827Z,100446.45
2019-03-21T19:16:36.556Z,100457.11
2019-03-21T19:26:38.350Z,100444.91
2019-03-21T19:36:39.185Z,100447.77
2019-03-21T19:46:48.773Z,100456.42
2019-03-21T19:56:49.594Z,100452.00
2019-03-21T20:06:50.375Z,100454.60
2019-03-21T20:16:51.111Z,100473.33
2019-03-21T20:26:51.794Z,100470.70
2019-03-21T20:36:53.604Z,100476.17
2019-03-21T20:46:54.409Z,100477.10
2019-03-21T20:56:55.222Z,100470.89
2019-03-21T21:06:56.320Z,100473.39
2019-03-21T21:16:57.010Z,100480.02
2019-03-21T21:26:59.684Z,100472.23
2019-03-21T21:37:08.598Z,100464.91
2019-03-21T21:47:18.150Z,100461.98
2019-03-21T21:57:19.051Z,100455.14
2019-03-21T22:07:23.267Z,100457.39
2019-03-21T22:17:29.837Z,100460.84
2019-03-21T22:27:36.438Z,100464.95
2019-03-21T22:37:37.271Z,100456.58
2019-03-21T22:47:41.110Z,100455.83
2019-03-21T22:57:42.063Z,100453.83
2019-03-21T23:07:42.753Z,100449.64
2019-03-21T23:17:43.658Z,100434.53
2019-03-21T23:27:47.564Z,100433.94
2019-03-21T23:37:48.364Z,100445.74
2019-03-21T23:47:53.251Z,100434.34
2019-03-21T23:57:53.921Z,100438.55
